Terminal Aerodrome Forecast
Issued by NWS Dallas/Fort Worth, TX

Home | Current Version | Previous Version | Text Only | Print | Product List | Glossary On
Versions: 1 2 3 4 5 6 7 8 9 10 11 12 13 14 15 16 17 18 19 20 21 22 23 24 25 26 27 28 29 30 31 32 33 34 35 36 37 38 39 40
000
FTUS44 KFWD 291819 AAA
TAFACT
TAF AMD
KACT 291819Z 2918/3018 02006KT P6SM VCSH SCT030 BKN090
     FM292100 12006KT P6SM VCSH SCT040 BKN300
     FM300200 10005KT P6SM FEW030
     FM300900 VRB04KT 5SM BR BKN025
      TEMPO 3012/3015 3SM BR BKN015
     FM301700 12006KT P6SM SCT025 BKN035=

USA.gov is the U.S. government's official web portal to all federal, state and local government web resources and services.